sensor_id;sensor_type;location;lat;lon;timestamp;pressure;altitude;pressure_sealevel;temperature;humidity
53546;BME280;39432;51.902;10.844;2022-12-24T00:00:10;98413.59;;;9.65;100.00
53546;BME280;39432;51.902;10.844;2022-12-24T00:02:43;98403.78;;;9.64;100.00
53546;BME280;39432;51.902;10.844;2022-12-24T00:05:13;98401.53;;;9.76;100.00
53546;BME280;39432;51.902;10.844;2022-12-24T00:07:42;98411.88;;;9.85;100.00
53546;BME280;39432;51.902;10.844;2022-12-24T00:10:12;98413.47;;;9.91;100.00
53546;BME280;39432;51.902;10.844;2022-12-24T00:12:41;98416.56;;;9.74;100.00
53546;BME280;39432;51.902;10.844;2022-12-24T00:15:11;98419.72;;;9.47;100.00
53546;BME280;39432;51.902;10.844;2022-12-24T00:17:43;98427.59;;;9.54;100.00
53546;BME280;39432;51.902;10.844;2022-12-24T00:20:13;98430.91;;;9.45;100.00
53546;BME280;39432;51.902;10.844;2022-12-24T00:22:43;98426.31;;;9.31;100.00
53546;BME280;39432;51.902;10.844;2022-12-24T00:25:12;98437.75;;;9.33;100.00
53546;BME280;39432;51.902;10.844;2022-12-24T00:27:42;98433.00;;;9.64;100.00
53546;BME280;39432;51.902;10.844;2022-12-24T00:30:11;98434.44;;;9.51;100.00
53546;BME280;39432;51.902;10.844;2022-12-24T00:32:44;98433.91;;;9.39;100.00
53546;BME280;39432;51.902;10.844;2022-12-24T00:35:13;98436.09;;;9.42;100.00
53546;BME280;39432;51.902;10.844;2022-12-24T00:37:45;98424.44;;;9.16;100.00
53546;BME280;39432;51.902;10.844;2022-12-24T00:40:16;98431.81;;;9.15;100.00
53546;BME280;39432;51.902;10.844;2022-12-24T00:42:46;98436.16;;;9.21;100.00
53546;BME280;39432;51.902;10.844;2022-12-24T00:45:16;98447.53;;;9.49;100.00
53546;BME280;39432;51.902;10.844;2022-12-24T00:47:48;98453.59;;;9.36;100.00
53546;BME280;39432;51.902;10.844;2022-12-24T00:50:18;98461.41;;;9.63;100.00
53546;BME280;39432;51.902;10.844;2022-12-24T00:52:48;98461.63;;;9.71;100.00
53546;BME280;39432;51.902;10.844;2022-12-24T00:55:18;98444.84;;;9.34;100.00
53546;BME280;39432;51.902;10.844;2022-12-24T00:57:48;98458.84;;;9.82;100.00
53546;BME280;39432;51.902;10.844;2022-12-24T01:00:18;98448.22;;;9.10;100.00
53546;BME280;39432;51.902;10.844;2022-12-24T01:02:51;98444.09;;;9.23;100.00
53546;BME280;39432;51.902;10.844;2022-12-24T01:05:21;98451.97;;;9.35;100.00
53546;BME280;39432;51.902;10.844;2022-12-24T01:07:48;98443.81;;;9.24;100.00
53546;BME280;39432;51.902;10.844;2022-12-24T01:10:19;98455.47;;;9.50;100.00
53546;BME280;39432;51.902;10.844;2022-12-24T01:12:49;98456.22;;;9.61;100.00
53546;BME280;39432;51.902;10.844;2022-12-24T01:15:19;98454.59;;;9.60;100.00
53546;BME280;39432;51.902;10.844;2022-12-24T01:17:51;98457.47;;;9.89;100.00
53546;BME280;39432;51.902;10.844;2022-12-24T01:20:20;98443.50;;;9.36;100.00
53546;BME280;39432;51.902;10.844;2022-12-24T01:22:52;98442.00;;;9.69;100.00
53546;BME280;39432;51.902;10.844;2022-12-24T01:25:22;98441.06;;;9.35;100.00
53546;BME280;39432;51.902;10.844;2022-12-24T01:27:51;98454.00;;;9.73;100.00
53546;BME280;39432;51.902;10.844;2022-12-24T01:30:21;98457.88;;;9.62;100.00
53546;BME280;39432;51.902;10.844;2022-12-24T01:32:53;98451.09;;;9.39;100.00
53546;BME280;39432;51.902;10.844;2022-12-24T01:35:23;98455.78;;;9.34;100.00
53546;BME280;39432;51.902;10.844;2022-12-24T01:37:52;98462.22;;;9.63;100.00
53546;BME280;39432;51.902;10.844;2022-12-24T01:40:24;98452.53;;;9.27;100.00
53546;BME280;39432;51.902;10.844;2022-12-24T01:43:14;98466.66;;;9.44;100.00
53546;BME280;39432;51.902;10.844;2022-12-24T01:45:55;98465.59;;;9.40;100.00
53546;BME280;39432;51.902;10.844;2022-12-24T01:48:38;98469.94;;;9.46;100.00
53546;BME280;39432;51.902;10.844;2022-12-24T01:51:18;98479.31;;;9.04;100.00
53546;BME280;39432;51.902;10.844;2022-12-24T01:53:54;98493.53;;;8.81;100.00
53546;BME280;39432;51.902;10.844;2022-12-24T01:56:25;98487.00;;;7.58;100.00
53546;BME280;39432;51.902;10.844;2022-12-24T01:58:59;98490.59;;;7.69;100.00
53546;BME280;39432;51.902;10.844;2022-12-24T02:01:29;98507.44;;;7.60;100.00
53546;BME280;39432;51.902;10.844;2022-12-24T02:04:05;98525.09;;;8.31;100.00
53546;BME280;39432;51.902;10.844;2022-12-24T02:06:38;98540.16;;;9.00;100.00
53546;BME280;39432;51.902;10.844;2022-12-24T02:09:07;98523.25;;;9.18;100.00
53546;BME280;39432;51.902;10.844;2022-12-24T02:11:38;98507.09;;;9.42;100.00
53546;BME280;39432;51.902;10.844;2022-12-24T02:14:11;98514.53;;;8.90;100.00
53546;BME280;39432;51.902;10.844;2022-12-24T02:16:46;98504.72;;;8.69;100.00
53546;BME280;39432;51.902;10.844;2022-12-24T02:19:42;98503.91;;;8.63;100.00
53546;BME280;39432;51.902;10.844;2022-12-24T02:22:27;98513.06;;;9.49;100.00
53546;BME280;39432;51.902;10.844;2022-12-24T02:25:22;98502.16;;;9.44;100.00
53546;BME280;39432;51.902;10.844;2022-12-24T02:27:56;98496.22;;;9.06;100.00
53546;BME280;39432;51.902;10.844;2022-12-24T02:30:32;98506.88;;;9.18;100.00
53546;BME280;39432;51.902;10.844;2022-12-24T02:33:16;98503.81;;;9.40;100.00
53546;BME280;39432;51.902;10.844;2022-12-24T02:35:53;98502.50;;;9.12;100.00
53546;BME280;39432;51.902;10.844;2022-12-24T02:38:27;98512.81;;;9.40;100.00
53546;BME280;39432;51.902;10.844;2022-12-24T02:41:00;98506.31;;;9.21;100.00
53546;BME280;39432;51.902;10.844;2022-12-24T02:43:34;98507.69;;;9.08;100.00
53546;BME280;39432;51.902;10.844;2022-12-24T02:46:11;98498.72;;;9.03;100.00
53546;BME280;39432;51.902;10.844;2022-12-24T02:48:43;98514.25;;;9.07;100.00
53546;BME280;39432;51.902;10.844;2022-12-24T02:51:14;98526.78;;;8.73;100.00
53546;BME280;39432;51.902;10.844;2022-12-24T02:53:44;98535.53;;;9.05;100.00
53546;BME280;39432;51.902;10.844;2022-12-24T02:56:33;98548.03;;;9.42;100.00
53546;BME280;39432;51.902;10.844;2022-12-24T02:59:33;98538.72;;;9.58;100.00
53546;BME280;39432;51.902;10.844;2022-12-24T03:02:14;98535.91;;;9.79;100.00
53546;BME280;39432;51.902;10.844;2022-12-24T03:04:53;98534.25;;;9.83;100.00
53546;BME280;39432;51.902;10.844;2022-12-24T03:07:28;98517.31;;;9.86;100.00
53546;BME280;39432;51.902;10.844;2022-12-24T03:10:08;98519.75;;;9.87;100.00
53546;BME280;39432;51.902;10.844;2022-12-24T03:12:43;98530.94;;;9.91;100.00
53546;BME280;39432;51.902;10.844;2022-12-24T03:15:15;98531.50;;;9.88;100.00
53546;BME280;39432;51.902;10.844;2022-12-24T03:17:49;98532.59;;;9.82;100.00
53546;BME280;39432;51.902;10.844;2022-12-24T03:20:24;98536.94;;;9.88;100.00
53546;BME280;39432;51.902;10.844;2022-12-24T03:22:54;98541.59;;;9.87;100.00
53546;BME280;39432;51.902;10.844;2022-12-24T03:25:24;98528.75;;;9.88;100.00
53546;BME280;39432;51.902;10.844;2022-12-24T03:27:56;98533.38;;;9.92;100.00
53546;BME280;39432;51.902;10.844;2022-12-24T03:30:26;98529.31;;;9.90;100.00
53546;BME280;39432;51.902;10.844;2022-12-24T03:32:58;98534.19;;;9.93;100.00
53546;BME280;39432;51.902;10.844;2022-12-24T03:35:28;98524.66;;;9.90;100.00
53546;BME280;39432;51.902;10.844;2022-12-24T03:37:57;98536.69;;;9.94;100.00
53546;BME280;39432;51.902;10.844;2022-12-24T03:40:27;98532.56;;;9.92;100.00
53546;BME280;39432;51.902;10.844;2022-12-24T03:42:57;98531.50;;;9.88;100.00
53546;BME280;39432;51.902;10.844;2022-12-24T03:45:27;98544.63;;;9.86;100.00
53546;BME280;39432;51.902;10.844;2022-12-24T03:47:59;98558.81;;;9.88;100.00
53546;BME280;39432;51.902;10.844;2022-12-24T03:50:28;98573.28;;;9.83;100.00
53546;BME280;39432;51.902;10.844;2022-12-24T03:52:58;98562.13;;;9.85;100.00
53546;BME280;39432;51.902;10.844;2022-12-24T03:55:28;98551.72;;;9.87;100.00
53546;BME280;39432;51.902;10.844;2022-12-24T03:57:57;98544.03;;;9.89;100.00
53546;BME280;39432;51.902;10.844;2022-12-24T04:00:27;98540.78;;;9.87;100.00
53546;BME280;39432;51.902;10.844;2022-12-24T04:02:59;98533.09;;;9.94;100.00
53546;BME280;39432;51.902;10.844;2022-12-24T04:05:29;98537.53;;;9.85;100.00
53546;BME280;39432;51.902;10.844;2022-12-24T04:07:58;98532.09;;;9.80;100.00
53546;BME280;39432;51.902;10.844;2022-12-24T04:10:28;98533.69;;;9.86;100.00
53546;BME280;39432;51.902;10.844;2022-12-24T04:12:58;98524.38;;;9.92;100.00
53546;BME280;39432;51.902;10.844;2022-12-24T04:15:27;98521.09;;;9.95;100.00
53546;BME280;39432;51.902;10.844;2022-12-24T04:18:00;98525.97;;;9.98;100.00
53546;BME280;39432;51.902;10.844;2022-12-24T04:20:29;98537.19;;;9.96;100.00
53546;BME280;39432;51.902;10.844;2022-12-24T04:22:59;98544.03;;;9.89;100.00
53546;BME280;39432;51.902;10.844;2022-12-24T04:25:28;98542.41;;;9.88;100.00
53546;BME280;39432;51.902;10.844;2022-12-24T04:27:58;98549.50;;;9.89;100.00
53546;BME280;39432;51.902;10.844;2022-12-24T04:30:27;98549.50;;;9.89;100.00
53546;BME280;39432;51.902;10.844;2022-12-24T04:33:00;98541.06;;;9.90;100.00
53546;BME280;39432;51.902;10.844;2022-12-24T04:35:30;98537.50;;;9.95;100.00
53546;BME280;39432;51.902;10.844;2022-12-24T04:37:59;98550.03;;;9.96;100.00
53546;BME280;39432;51.902;10.844;2022-12-24T04:40:29;98560.97;;;9.96;100.00
53546;BME280;39432;51.902;10.844;2022-12-24T04:42:58;98559.91;;;9.92;100.00
53546;BME280;39432;51.902;10.844;2022-12-24T04:45:28;98552.03;;;9.80;100.00
53546;BME280;39432;51.902;10.844;2022-12-24T04:48:00;98567.06;;;9.72;100.00
53546;BME280;39432;51.902;10.844;2022-12-24T04:50:30;98577.22;;;9.62;100.00
53546;BME280;39432;51.902;10.844;2022-12-24T04:53:00;98581.81;;;9.61;100.00
53546;BME280;39432;51.902;10.844;2022-12-24T04:55:29;98580.75;;;9.62;100.00
53546;BME280;39432;51.902;10.844;2022-12-24T04:57:59;98585.66;;;9.60;100.00
53546;BME280;39432;51.902;10.844;2022-12-24T05:00:29;98585.13;;;9.63;100.00
53546;BME280;39432;51.902;10.844;2022-12-24T05:03:01;98594.66;;;9.66;100.00
53546;BME280;39432;51.902;10.844;2022-12-24T05:05:30;98594.09;;;9.74;100.00
53546;BME280;39432;51.902;10.844;2022-12-24T05:08:04;98594.94;;;9.69;100.00
53546;BME280;39432;51.902;10.844;2022-12-24T05:10:33;98599.06;;;9.62;100.00
53546;BME280;39432;51.902;10.844;2022-12-24T05:13:03;98602.59;;;9.57;100.00
53546;BME280;39432;51.902;10.844;2022-12-24T05:15:33;98610.50;;;9.64;100.00
53546;BME280;39432;51.902;10.844;2022-12-24T05:18:05;98611.03;;;9.66;100.00
53546;BME280;39432;51.902;10.844;2022-12-24T05:20:35;98611.84;;;9.71;100.00
53546;BME280;39432;51.902;10.844;2022-12-24T05:23:04;98605.31;;;9.72;100.00
53546;BME280;39432;51.902;10.844;2022-12-24T05:25:46;98607.78;;;9.64;100.00
53546;BME280;39432;51.902;10.844;2022-12-24T05:28:29;98613.78;;;9.66;100.00
53546;BME280;39432;51.902;10.844;2022-12-24T05:30:59;98613.25;;;9.64;100.00
53546;BME280;39432;51.902;10.844;2022-12-24T05:33:31;98616.25;;;9.62;100.00
53546;BME280;39432;51.902;10.844;2022-12-24T05:36:00;98605.34;;;9.62;100.00
53546;BME280;39432;51.902;10.844;2022-12-24T05:38:30;98612.41;;;9.63;100.00
53546;BME280;39432;51.902;10.844;2022-12-24T05:41:00;98624.97;;;9.59;100.00
53546;BME280;39432;51.902;10.844;2022-12-24T05:43:30;98634.00;;;9.60;100.00
53546;BME280;39432;51.902;10.844;2022-12-24T05:46:01;98634.00;;;9.65;100.00
53546;BME280;39432;51.902;10.844;2022-12-24T05:48:36;98637.25;;;9.72;100.00
53546;BME280;39432;51.902;10.844;2022-12-24T05:51:08;98638.63;;;9.59;100.00
53546;BME280;39432;51.902;10.844;2022-12-24T05:53:39;98621.44;;;9.64;100.00
53546;BME280;39432;51.902;10.844;2022-12-24T05:56:11;98628.28;;;9.56;100.00
53546;BME280;39432;51.902;10.844;2022-12-24T05:58:42;98635.91;;;9.54;100.00
53546;BME280;39432;51.902;10.844;2022-12-24T06:01:13;98644.09;;;9.49;100.00
53546;BME280;39432;51.902;10.844;2022-12-24T06:03:45;98648.47;;;9.55;100.00
53546;BME280;39432;51.902;10.844;2022-12-24T06:06:16;98657.22;;;9.57;100.00
53546;BME280;39432;51.902;10.844;2022-12-24T06:08:48;98664.31;;;9.48;100.00
53546;BME280;39432;51.902;10.844;2022-12-24T06:11:19;98670.88;;;9.42;100.00
53546;BME280;39432;51.902;10.844;2022-12-24T06:13:49;98678.53;;;9.35;100.00
53546;BME280;39432;51.902;10.844;2022-12-24T06:16:22;98686.72;;;9.40;100.00
53546;BME280;39432;51.902;10.844;2022-12-24T06:18:55;98684.25;;;9.43;100.00
53546;BME280;39432;51.902;10.844;2022-12-24T06:21:24;98689.97;;;9.37;100.00
53546;BME280;39432;51.902;10.844;2022-12-24T06:23:54;98685.63;;;9.46;100.00
53546;BME280;39432;51.902;10.844;2022-12-24T06:26:24;98678.78;;;9.43;100.00
53546;BME280;39432;51.902;10.844;2022-12-24T06:28:53;98685.91;;;9.34;100.00
53546;BME280;39432;51.902;10.844;2022-12-24T06:31:23;98682.88;;;9.36;100.00
53546;BME280;39432;51.902;10.844;2022-12-24T06:33:56;98696.25;;;9.37;100.00
53546;BME280;39432;51.902;10.844;2022-12-24T06:36:25;98706.34;;;9.37;100.00
53546;BME280;39432;51.902;10.844;2022-12-24T06:38:55;98701.44;;;9.44;100.00
53546;BME280;39432;51.902;10.844;2022-12-24T06:41:24;98704.72;;;9.46;100.00
53546;BME280;39432;51.902;10.844;2022-12-24T06:43:54;98707.47;;;9.51;100.00
53546;BME280;39432;51.902;10.844;2022-12-24T06:46:24;98697.63;;;9.45;100.00
53546;BME280;39432;51.902;10.844;2022-12-24T06:48:56;98696.53;;;9.41;100.00
53546;BME280;39432;51.902;10.844;2022-12-24T06:51:25;98699.81;;;9.43;100.00
53546;BME280;39432;51.902;10.844;2022-12-24T06:53:55;98709.09;;;9.37;100.00
53546;BME280;39432;51.902;10.844;2022-12-24T06:56:25;98720.53;;;9.34;100.00
53546;BME280;39432;51.902;10.844;2022-12-24T06:58:54;98727.63;;;9.19;100.00
53546;BME280;39432;51.902;10.844;2022-12-24T07:01:31;98721.63;;;9.12;100.00
53546;BME280;39432;51.902;10.844;2022-12-24T07:04:03;98732.28;;;9.19;100.00
53546;BME280;39432;51.902;10.844;2022-12-24T07:06:33;98731.44;;;9.13;100.00
53546;BME280;39432;51.902;10.844;2022-12-24T07:09:02;98736.09;;;9.18;100.00
53546;BME280;39432;51.902;10.844;2022-12-24T07:11:32;98721.06;;;9.10;100.00
53546;BME280;39432;51.902;10.844;2022-12-24T07:14:02;98740.16;;;9.10;100.00
53546;BME280;39432;51.902;10.844;2022-12-24T07:16:31;98751.63;;;9.07;100.00
53546;BME280;39432;51.902;10.844;2022-12-24T07:19:04;98753.28;;;9.13;100.00
53546;BME280;39432;51.902;10.844;2022-12-24T07:21:33;98760.38;;;9.14;100.00
53546;BME280;39432;51.902;10.844;2022-12-24T07:24:03;98765.28;;;9.12;100.00
53546;BME280;39432;51.902;10.844;2022-12-24T07:26:33;98770.47;;;9.19;100.00
53546;BME280;39432;51.902;10.844;2022-12-24T07:29:03;98772.94;;;9.20;100.00
53546;BME280;39432;51.902;10.844;2022-12-24T07:31:32;98772.91;;;9.10;100.00
53546;BME280;39432;51.902;10.844;2022-12-24T07:34:05;98774.00;;;9.14;100.00
53546;BME280;39432;51.902;10.844;2022-12-24T07:36:34;98778.94;;;9.12;100.00
53546;BME280;39432;51.902;10.844;2022-12-24T07:39:04;98784.88;;;9.04;100.00
53546;BME280;39432;51.902;10.844;2022-12-24T07:41:34;98791.97;;;9.05;100.00
53546;BME280;39432;51.902;10.844;2022-12-24T07:44:10;98796.66;;;9.15;100.00
53546;BME280;39432;51.902;10.844;2022-12-24T07:46:40;98806.19;;;9.07;100.00
53546;BME280;39432;51.902;10.844;2022-12-24T07:49:12;98806.19;;;9.07;100.00
53546;BME280;39432;51.902;10.844;2022-12-24T07:51:42;98809.41;;;8.99;100.00
53546;BME280;39432;51.902;10.844;2022-12-24T07:54:12;98815.72;;;9.10;100.00
53546;BME280;39432;51.902;10.844;2022-12-24T07:56:41;98818.72;;;9.03;100.00
53546;BME280;39432;51.902;10.844;2022-12-24T07:59:12;98820.34;;;8.99;100.00
53546;BME280;39432;51.902;10.844;2022-12-24T08:01:42;98829.34;;;9.05;100.00
53546;BME280;39432;51.902;10.844;2022-12-24T08:04:14;98832.63;;;8.96;100.00
53546;BME280;39432;51.902;10.844;2022-12-24T08:06:44;98843.28;;;9.03;100.00
53546;BME280;39432;51.902;10.844;2022-12-24T08:09:13;98843.22;;;8.93;100.00
53546;BME280;39432;51.902;10.844;2022-12-24T08:11:43;98845.19;;;9.03;100.00
53546;BME280;39432;51.902;10.844;2022-12-24T08:14:18;98861.84;;;9.11;100.00
53546;BME280;39432;51.902;10.844;2022-12-24T08:16:47;98861.13;;;9.31;100.00
53546;BME280;39432;51.902;10.844;2022-12-24T08:19:20;98866.34;;;9.48;100.00
53546;BME280;39432;51.902;10.844;2022-12-24T08:21:49;98865.28;;;9.54;100.00
53546;BME280;39432;51.902;10.844;2022-12-24T08:24:19;98864.16;;;9.50;100.00
53546;BME280;39432;51.902;10.844;2022-12-24T08:26:48;98863.66;;;9.58;100.00
53546;BME280;39432;51.902;10.844;2022-12-24T08:29:18;98863.06;;;9.36;100.00
53546;BME280;39432;51.902;10.844;2022-12-24T08:31:48;98867.47;;;9.52;100.00
53546;BME280;39432;51.902;10.844;2022-12-24T08:34:20;98868.81;;;9.49;100.00
53546;BME280;39432;51.902;10.844;2022-12-24T08:36:50;98875.13;;;9.60;100.00
53546;BME280;39432;51.902;10.844;2022-12-24T08:39:19;98872.19;;;9.97;100.00
53546;BME280;39432;51.902;10.844;2022-12-24T08:41:49;98885.56;;;9.94;100.00
53546;BME280;39432;51.902;10.844;2022-12-24T08:44:19;98890.50;;;9.97;100.00
53546;BME280;39432;51.902;10.844;2022-12-24T08:46:48;98888.66;;;10.33;100.00
53546;BME280;39432;51.902;10.844;2022-12-24T08:49:21;98892.69;;;9.95;100.00
53546;BME280;39432;51.902;10.844;2022-12-24T08:51:51;98904.44;;;10.21;100.00
53546;BME280;39432;51.902;10.844;2022-12-24T08:54:21;98909.13;;;10.25;100.00
53546;BME280;39432;51.902;10.844;2022-12-24T08:56:51;98913.50;;;10.37;100.00
53546;BME280;39432;51.902;10.844;2022-12-24T08:59:21;98909.69;;;10.27;100.00
53546;BME280;39432;51.902;10.844;2022-12-24T09:01:51;98904.19;;;10.12;100.00
53546;BME280;39432;51.902;10.844;2022-12-24T09:04:23;98909.63;;;9.92;100.00
53546;BME280;39432;51.902;10.844;2022-12-24T09:06:53;98913.50;;;10.32;100.00
53546;BME280;39432;51.902;10.844;2022-12-24T09:09:23;98918.94;;;10.01;100.00
53546;BME280;39432;51.902;10.844;2022-12-24T09:12:03;98924.94;;;10.03;100.00
53546;BME280;39432;51.902;10.844;2022-12-24T09:14:33;98943.50;;;9.91;100.00
53546;BME280;39432;51.902;10.844;2022-12-24T09:17:03;98940.22;;;9.94;100.00
53546;BME280;39432;51.902;10.844;2022-12-24T09:19:35;98939.16;;;10.00;100.00
53546;BME280;39432;51.902;10.844;2022-12-24T09:22:05;98937.75;;;9.92;100.00
53546;BME280;39432;51.902;10.844;2022-12-24T09:24:34;98936.41;;;10.05;100.00
53546;BME280;39432;51.902;10.844;2022-12-24T09:27:04;98941.34;;;10.08;100.00
53546;BME280;39432;51.902;10.844;2022-12-24T09:29:34;98951.19;;;10.19;100.00
53546;BME280;39432;51.902;10.844;2022-12-24T09:32:06;98952.78;;;9.85;100.00
53546;BME280;39432;51.902;10.844;2022-12-24T09:34:38;98968.41;;;10.15;100.00
53546;BME280;39432;51.902;10.844;2022-12-24T09:37:08;98963.97;;;9.93;100.00
53546;BME280;39432;51.902;10.844;2022-12-24T09:39:37;98969.16;;;9.85;100.00
53546;BME280;39432;51.902;10.844;2022-12-24T09:42:15;98976.03;;;9.97;100.00
53546;BME280;39432;51.902;10.844;2022-12-24T09:44:55;98982.84;;;9.90;100.00
53546;BME280;39432;51.902;10.844;2022-12-24T09:47:32;98985.81;;;9.88;100.00
53546;BME280;39432;51.902;10.844;2022-12-24T09:50:22;99000.84;;;9.86;100.00
53546;BME280;39432;51.902;10.844;2022-12-24T09:52:53;99007.63;;;9.68;100.00
53546;BME280;39432;51.902;10.844;2022-12-24T09:55:27;99023.19;;;9.67;100.00
53546;BME280;39432;51.902;10.844;2022-12-24T09:58:00;99025.91;;;9.62;100.00
53546;BME280;39432;51.902;10.844;2022-12-24T10:00:33;99019.91;;;9.70;100.00
53546;BME280;39432;51.902;10.844;2022-12-24T10:03:13;99018.75;;;9.61;100.00
53546;BME280;39432;51.902;10.844;2022-12-24T10:05:50;99023.22;;;9.72;100.00
53546;BME280;39432;51.902;10.844;2022-12-24T10:08:30;99017.22;;;9.81;100.00
53546;BME280;39432;51.902;10.844;2022-12-24T10:11:09;99031.47;;;9.93;100.00
53546;BME280;39432;51.902;10.844;2022-12-24T10:13:53;99039.69;;;9.98;100.00
53546;BME280;39432;51.902;10.844;2022-12-24T10:16:34;99031.00;;;10.06;100.00
53546;BME280;39432;51.902;10.844;2022-12-24T10:19:13;99033.72;;;10.06;100.00
53546;BME280;39432;51.902;10.844;2022-12-24T10:21:57;99040.00;;;10.01;100.00
53546;BME280;39432;51.902;10.844;2022-12-24T10:24:35;99035.25;;;9.82;100.00
53546;BME280;39432;51.902;10.844;2022-12-24T10:27:18;99039.66;;;9.93;100.00
53546;BME280;39432;51.902;10.844;2022-12-24T10:29:54;99045.00;;;10.25;100.00
53546;BME280;39432;51.902;10.844;2022-12-24T10:32:27;99031.00;;;10.16;100.00
53546;BME280;39432;51.902;10.844;2022-12-24T10:34:59;99037.00;;;10.08;100.00
53546;BME280;39432;51.902;10.844;2022-12-24T10:37:32;99044.09;;;10.09;100.00
53546;BME280;39432;51.902;10.844;2022-12-24T10:40:03;99039.78;;;10.18;100.00
53546;BME280;39432;51.902;10.844;2022-12-24T10:42:37;99047.50;;;9.69;100.00
53546;BME280;39432;51.902;10.844;2022-12-24T10:45:20;99059.75;;;9.66;100.00
53546;BME280;39432;51.902;10.844;2022-12-24T10:47:53;99064.13;;;9.62;100.00
53546;BME280;39432;51.902;10.844;2022-12-24T10:50:28;99075.75;;;9.42;100.00
53546;BME280;39432;51.902;10.844;2022-12-24T10:53:10;99089.59;;;9.31;100.00
53546;BME280;39432;51.902;10.844;2022-12-24T10:55:42;99088.50;;;9.32;100.00
53546;BME280;39432;51.902;10.844;2022-12-24T10:58:15;99095.06;;;9.31;100.00
53546;BME280;39432;51.902;10.844;2022-12-24T11:00:49;99095.72;;;9.48;100.00
53546;BME280;39432;51.902;10.844;2022-12-24T11:03:21;99105.50;;;9.44;100.00
53546;BME280;39432;51.902;10.844;2022-12-24T11:06:04;99110.75;;;9.50;100.00
53546;BME280;39432;51.902;10.844;2022-12-24T11:08:39;99116.44;;;9.44;100.00
53546;BME280;39432;51.902;10.844;2022-12-24T11:11:11;99119.69;;;9.41;100.00
53546;BME280;39432;51.902;10.844;2022-12-24T11:13:43;99113.06;;;9.32;100.00
53546;BME280;39432;51.902;10.844;2022-12-24T11:16:21;99121.31;;;9.37;100.00
53546;BME280;39432;51.902;10.844;2022-12-24T11:18:55;99112.28;;;9.36;100.00
53546;BME280;39432;51.902;10.844;2022-12-24T11:21:27;99131.09;;;9.33;100.00
53546;BME280;39432;51.902;10.844;2022-12-24T11:24:06;99148.06;;;9.35;100.00
53546;BME280;39432;51.902;10.844;2022-12-24T11:26:37;99156.19;;;9.30;100.00
53546;BME280;39432;51.902;10.844;2022-12-24T11:29:16;99157.75;;;9.20;100.00
53546;BME280;39432;51.902;10.844;2022-12-24T11:31:48;99170.25;;;9.16;100.00
53546;BME280;39432;51.902;10.844;2022-12-24T11:34:24;99170.22;;;9.11;100.00
53546;BME280;39432;51.902;10.844;2022-12-24T11:37:06;99168.53;;;8.78;100.00
53546;BME280;39432;51.902;10.844;2022-12-24T11:39:45;99156.69;;;8.67;100.00
53546;BME280;39432;51.902;10.844;2022-12-24T11:42:25;99162.44;;;8.71;100.00
53546;BME280;39432;51.902;10.844;2022-12-24T11:44:58;99167.19;;;8.81;100.00
53546;BME280;39432;51.902;10.844;2022-12-24T11:47:32;99161.75;;;8.81;100.00
53546;BME280;39432;51.902;10.844;2022-12-24T11:50:20;99161.22;;;8.84;100.00
53546;BME280;39432;51.902;10.844;2022-12-24T11:52:55;99157.81;;;8.98;100.00
53546;BME280;39432;51.902;10.844;2022-12-24T11:55:35;99167.19;;;9.08;100.00
53546;BME280;39432;51.902;10.844;2022-12-24T11:58:18;99165.03;;;9.10;100.00
53546;BME280;39432;51.902;10.844;2022-12-24T12:00:51;99151.19;;;9.21;100.00
53546;BME280;39432;51.902;10.844;2022-12-24T12:03:28;99140.50;;;9.15;100.00
53546;BME280;39432;51.902;10.844;2022-12-24T12:06:00;99146.69;;;9.05;100.00
53546;BME280;39432;51.902;10.844;2022-12-24T12:08:32;99154.56;;;9.34;100.00
53546;BME280;39432;51.902;10.844;2022-12-24T12:11:11;99146.53;;;9.54;100.00
53546;BME280;39432;51.902;10.844;2022-12-24T12:13:43;99138.97;;;9.24;100.00
53546;BME280;39432;51.902;10.844;2022-12-24T12:16:19;99141.50;;;9.36;100.00
53546;BME280;39432;51.902;10.844;2022-12-24T12:18:54;99144.56;;;9.44;100.00
53546;BME280;39432;51.902;10.844;2022-12-24T12:21:29;99157.44;;;9.49;100.00
53546;BME280;39432;51.902;10.844;2022-12-24T12:24:05;99157.50;;;9.59;100.00
53546;BME280;39432;51.902;10.844;2022-12-24T12:26:39;99167.41;;;9.70;100.00
53546;BME280;39432;51.902;10.844;2022-12-24T12:29:25;99165.25;;;9.77;100.00
53546;BME280;39432;51.902;10.844;2022-12-24T12:31:58;99165.97;;;9.58;100.00
53546;BME280;39432;51.902;10.844;2022-12-24T12:34:33;99173.06;;;9.96;100.00
53546;BME280;39432;51.902;10.844;2022-12-24T12:37:09;99155.75;;;9.43;100.00
53546;BME280;39432;51.902;10.844;2022-12-24T12:39:42;99157.28;;;10.13;100.00
53546;BME280;39432;51.902;10.844;2022-12-24T12:42:19;99164.97;;;9.37;100.00
53546;BME280;39432;51.902;10.844;2022-12-24T12:45:29;99180.22;;;10.07;100.00
53546;BME280;39432;51.902;10.844;2022-12-24T12:48:15;99168.78;;;10.20;100.00
53546;BME280;39432;51.902;10.844;2022-12-24T12:50:51;99167.91;;;10.10;100.00
53546;BME280;39432;51.902;10.844;2022-12-24T12:53:41;99179.69;;;10.10;100.00
53546;BME280;39432;51.902;10.844;2022-12-24T12:56:22;99194.91;;;9.96;100.00
53546;BME280;39432;51.902;10.844;2022-12-24T12:59:00;99192.81;;;10.13;100.00
53546;BME280;39432;51.902;10.844;2022-12-24T13:01:39;99193.13;;;9.74;100.00
53546;BME280;39432;51.902;10.844;2022-12-24T13:04:42;99203.81;;;9.44;100.00
53546;BME280;39432;51.902;10.844;2022-12-24T13:07:41;99204.47;;;8.97;100.00
53546;BME280;39432;51.902;10.844;2022-12-24T13:13:33;99193.94;;;9.38;100.00
53546;BME280;39432;51.902;10.844;2022-12-24T13:19:15;99183.06;;;9.43;100.00
53546;BME280;39432;51.902;10.844;2022-12-24T13:21:50;99187.59;;;9.64;100.00
53546;BME280;39432;51.902;10.844;2022-12-24T13:24:24;99190.09;;;9.39;100.00
53546;BME280;39432;51.902;10.844;2022-12-24T13:27:02;99188.75;;;9.73;100.00